createdAt,value
2019-01-03T00:03:57.716Z,103339.75
2019-01-03T00:09:13.307Z,103341.11
2019-01-03T00:14:40.027Z,103327.69
2019-01-03T00:20:07.096Z,103327.31
2019-01-03T00:25:20.164Z,103326.00
2019-01-03T00:30:49.501Z,103325.08
2019-01-03T00:36:08.349Z,103324.09
2019-01-03T00:41:15.397Z,103343.98
2019-01-03T00:46:32.435Z,103333.30
2019-01-03T00:51:45.185Z,103329.13
2019-01-03T00:57:15.712Z,103320.09
2019-01-03T01:02:30.790Z,103320.59
2019-01-03T01:07:58.919Z,103326.30
2019-01-03T01:13:11.674Z,103330.20
2019-01-03T01:18:28.772Z,103338.88
2019-01-03T01:23:41.868Z,103338.97
2019-01-03T01:28:56.204Z,103344.20
2019-01-03T01:34:09.000Z,103348.58
2019-01-03T01:39:22.509Z,103368.27
2019-01-03T01:44:39.888Z,103373.55
2019-01-03T01:50:04.548Z,103389.77
2019-01-03T01:55:18.881Z,103384.15
2019-01-03T02:00:33.692Z,103388.12
2019-01-03T02:05:53.815Z,103395.16
2019-01-03T02:11:06.646Z,103378.61
2019-01-03T02:16:39.294Z,103380.44
2019-01-03T02:22:02.635Z,103385.69
2019-01-03T02:27:19.769Z,103424.99
2019-01-03T02:32:32.532Z,103404.09
2019-01-03T02:37:49.926Z,103395.02
2019-01-03T02:43:01.474Z,103396.36
2019-01-03T02:48:28.031Z,103377.61
2019-01-03T02:53:40.797Z,103375.86
2019-01-03T02:58:57.943Z,103368.89
2019-01-03T03:04:07.691Z,103368.00
2019-01-03T03:09:20.696Z,103351.86
2019-01-03T03:14:36.885Z,103347.95
2019-01-03T03:19:50.056Z,103325.72
2019-01-03T03:25:03.087Z,103326.16
2019-01-03T03:30:23.858Z,103324.02
2019-01-03T03:35:30.965Z,103318.80
2019-01-03T03:40:43.730Z,103305.22
2019-01-03T03:45:57.728Z,103306.59
2019-01-03T03:51:26.999Z,103305.77
2019-01-03T03:56:49.914Z,103311.00
2019-01-03T04:02:04.230Z,103312.72
2019-01-03T04:07:18.640Z,103315.34
2019-01-03T04:12:23.770Z,103316.69
2019-01-03T04:17:32.296Z,103309.77
2019-01-03T04:22:42.792Z,103304.98
2019-01-03T04:27:50.547Z,103306.78
2019-01-03T04:33:03.555Z,103311.16
2019-01-03T04:38:23.962Z,103306.42
2019-01-03T04:43:35.499Z,103310.83
2019-01-03T04:48:49.843Z,103310.41
2019-01-03T04:54:07.775Z,103314.83
2019-01-03T04:59:22.149Z,103303.98
2019-01-03T05:04:37.015Z,103305.35
2019-01-03T05:10:06.465Z,103297.12
2019-01-03T05:15:22.863Z,103299.34
2019-01-03T05:20:35.866Z,103304.16
2019-01-03T05:25:48.847Z,103301.53
2019-01-03T05:30:59.293Z,103289.32
2019-01-03T05:36:12.062Z,103305.48
2019-01-03T05:41:32.416Z,103297.20
2019-01-03T05:46:58.574Z,103303.34
2019-01-03T05:52:12.889Z,103296.83
2019-01-03T05:57:29.248Z,103293.33
2019-01-03T06:02:43.578Z,103291.92
2019-01-03T06:07:56.314Z,103305.00
2019-01-03T06:13:21.594Z,103304.13
2019-01-03T06:18:34.327Z,103300.19
2019-01-03T06:23:54.679Z,103297.17
2019-01-03T06:29:17.945Z,103306.27
2019-01-03T06:34:44.285Z,103304.34
2019-01-03T06:40:10.736Z,103317.72
2019-01-03T06:45:23.700Z,103316.47
2019-01-03T06:50:41.035Z,103317.86
2019-01-03T06:55:58.128Z,103318.44
2019-01-03T07:01:15.382Z,103325.06
2019-01-03T07:06:29.714Z,103328.59
2019-01-03T07:11:42.485Z,103328.98
2019-01-03T07:17:00.260Z,103335.95
2019-01-03T07:22:20.533Z,103339.09
2019-01-03T07:27:46.628Z,103330.89
2019-01-03T07:32:59.381Z,103329.17
2019-01-03T07:38:12.260Z,103332.68
2019-01-03T07:43:41.707Z,103340.55
2019-01-03T07:48:56.047Z,103339.20
2019-01-03T07:54:25.683Z,103347.94
2019-01-03T07:59:45.873Z,103350.59
2019-01-03T08:05:00.377Z,103356.80
2019-01-03T08:10:13.419Z,103362.59
2019-01-03T08:15:33.552Z,103355.27
2019-01-03T08:20:50.987Z,103358.89
2019-01-03T08:26:23.592Z,103354.69
2019-01-03T08:31:36.196Z,103354.80
2019-01-03T08:37:05.721Z,103361.03
2019-01-03T08:42:23.087Z,103361.50
2019-01-03T08:47:43.485Z,103362.44
2019-01-03T08:53:00.916Z,103369.04
2019-01-03T08:58:30.377Z,103369.12
2019-01-03T09:03:44.758Z,103374.84
2019-01-03T09:09:14.459Z,103377.98
2019-01-03T09:14:31.939Z,103381.50
2019-01-03T09:19:52.475Z,103381.12
2019-01-03T09:25:21.809Z,103385.16
2019-01-03T09:30:34.852Z,103380.00
2019-01-03T09:35:58.670Z,103382.74
2019-01-03T09:41:11.635Z,103384.09
2019-01-03T09:46:07.117Z,103386.78
2019-01-03T09:51:02.614Z,103397.77
2019-01-03T09:55:58.129Z,103390.33
2019-01-03T10:00:53.854Z,103394.26
2019-01-03T10:05:49.343Z,103403.48
2019-01-03T10:10:44.842Z,103403.47
2019-01-03T10:15:40.293Z,103389.83
2019-01-03T10:20:35.841Z,103390.23
2019-01-03T10:25:31.325Z,103389.34
2019-01-03T10:30:26.806Z,103383.58
2019-01-03T10:35:22.291Z,103365.53
2019-01-03T10:40:17.827Z,103369.91
2019-01-03T10:45:13.313Z,103373.08
2019-01-03T10:50:08.977Z,103364.79
2019-01-03T10:55:05.779Z,103364.83
2019-01-03T11:00:01.260Z,103354.75
2019-01-03T11:04:56.743Z,103351.67
2019-01-03T11:09:52.193Z,103344.67
2019-01-03T11:14:47.656Z,103348.64
2019-01-03T11:19:43.154Z,103346.02
2019-01-03T11:24:38.780Z,103339.44
2019-01-03T11:29:34.262Z,103336.31
2019-01-03T11:34:29.768Z,103330.63
2019-01-03T11:39:25.317Z,103327.98
2019-01-03T11:44:20.883Z,103331.91
2019-01-03T11:49:16.375Z,103313.88
2019-01-03T11:54:11.885Z,103313.39
2019-01-03T11:59:07.492Z,103312.91
2019-01-03T12:04:02.995Z,103303.26
2019-01-03T12:08:58.525Z,103309.88
2019-01-03T12:13:54.083Z,103307.70
2019-01-03T12:18:49.566Z,103305.08
2019-01-03T12:23:45.052Z,103298.13
2019-01-03T12:28:40.549Z,103301.66
2019-01-03T12:33:36.057Z,103294.21
2019-01-03T12:38:31.709Z,103288.08
2019-01-03T12:43:28.511Z,103284.94
2019-01-03T12:48:24.016Z,103302.89
2019-01-03T12:53:19.574Z,103306.85
2019-01-03T12:58:15.073Z,103313.48
2019-01-03T13:03:10.736Z,103305.58
2019-01-03T13:08:09.156Z,103291.55
2019-01-03T13:13:04.685Z,103283.24
2019-01-03T13:18:00.192Z,103290.23
2019-01-03T13:22:59.042Z,103285.86
2019-01-03T13:27:54.525Z,103299.05
2019-01-03T13:32:50.030Z,103309.13
2019-01-03T13:37:45.565Z,103323.20
2019-01-03T13:42:41.038Z,103313.53
2019-01-03T13:47:36.554Z,103320.11
2019-01-03T13:52:32.049Z,103322.27
2019-01-03T13:57:29.860Z,103298.59
2019-01-03T14:02:25.412Z,103297.28
2019-01-03T14:07:20.936Z,103289.84
2019-01-03T14:12:18.128Z,103297.31
2019-01-03T14:17:13.624Z,103291.58
2019-01-03T14:22:09.232Z,103304.74
2019-01-03T14:27:04.803Z,103308.27
2019-01-03T14:32:00.268Z,103306.06
2019-01-03T14:36:55.792Z,103305.64
2019-01-03T14:41:51.304Z,103318.80
2019-01-03T14:46:46.838Z,103321.42
2019-01-03T14:51:42.460Z,103320.07
2019-01-03T14:56:37.921Z,103312.64
2019-01-03T15:01:33.532Z,103309.12
2019-01-03T15:06:29.010Z,103315.69
2019-01-03T15:11:24.530Z,103317.89
2019-01-03T15:16:20.038Z,103306.05
2019-01-03T15:21:15.515Z,103308.23
2019-01-03T15:26:10.967Z,103309.97
2019-01-03T15:31:06.443Z,103308.22
2019-01-03T15:36:01.993Z,103314.78
2019-01-03T15:40:57.509Z,103310.38
2019-01-03T15:45:52.971Z,103309.05
2019-01-03T15:50:48.480Z,103326.13
2019-01-03T15:55:44.032Z,103325.28
2019-01-03T16:00:39.546Z,103325.70
2019-01-03T16:05:35.014Z,103327.02
2019-01-03T16:10:30.486Z,103325.27
2019-01-03T16:15:26.106Z,103329.17
2019-01-03T16:20:21.585Z,103332.69
2019-01-03T16:25:17.144Z,103330.48
2019-01-03T16:30:12.867Z,103329.62
2019-01-03T16:35:08.449Z,103326.98
2019-01-03T16:40:04.013Z,103333.97
2019-01-03T16:44:59.561Z,103333.53
2019-01-03T16:49:56.071Z,103340.95
2019-01-03T16:54:51.572Z,103344.47
2019-01-03T16:59:47.088Z,103344.00
2019-01-03T17:04:42.782Z,103333.06
2019-01-03T17:09:38.245Z,103333.48
2019-01-03T17:14:33.835Z,103340.95
2019-01-03T17:19:29.316Z,103335.70
2019-01-03T17:24:24.833Z,103337.89
2019-01-03T17:29:20.341Z,103336.56
2019-01-03T17:34:15.961Z,103334.79
2019-01-03T17:39:11.477Z,103333.94
2019-01-03T17:44:07.102Z,103341.34
2019-01-03T17:49:02.566Z,103351.42
2019-01-03T17:53:59.194Z,103350.11
2019-01-03T17:58:54.863Z,103361.05
2019-01-03T18:03:51.146Z,103362.84
2019-01-03T18:08:46.720Z,103365.01
2019-01-03T18:13:42.384Z,103350.12
2019-01-03T18:18:37.881Z,103351.44
2019-01-03T18:23:33.614Z,103347.48
2019-01-03T18:28:29.056Z,103345.28
2019-01-03T18:33:26.258Z,103342.64
2019-01-03T18:38:21.775Z,103340.48
2019-01-03T18:43:18.046Z,103349.63
2019-01-03T18:48:14.164Z,103358.39
2019-01-03T19:04:33.131Z,103344.59
2019-01-03T19:09:28.620Z,103347.16
2019-01-03T19:14:24.144Z,103357.66
2019-01-03T19:19:19.609Z,103358.95
2019-01-03T19:24:17.843Z,103352.34
2019-01-03T19:29:13.331Z,103354.05
2019-01-03T19:34:08.838Z,103370.22
2019-01-03T19:39:04.971Z,103364.95
2019-01-03T19:44:00.468Z,103369.30
2019-01-03T19:48:55.926Z,103374.09
2019-01-03T19:53:51.404Z,103388.08
2019-01-03T19:58:46.881Z,103388.08
2019-01-03T20:03:42.373Z,103377.15
2019-01-03T20:08:37.971Z,103377.57
2019-01-03T20:13:33.450Z,103376.25
2019-01-03T20:18:29.010Z,103375.84
2019-01-03T20:23:24.554Z,103380.66
2019-01-03T20:28:20.046Z,103370.16
2019-01-03T20:33:15.632Z,103372.78
2019-01-03T20:38:11.114Z,103375.83
2019-01-03T20:43:06.674Z,103373.63
2019-01-03T20:48:02.205Z,103364.02
2019-01-03T20:52:57.676Z,103363.59
2019-01-03T20:57:53.183Z,103372.32
2019-01-03T21:02:48.669Z,103360.08
2019-01-03T21:07:44.180Z,103350.45
2019-01-03T21:12:39.726Z,103346.52
2019-01-03T21:17:35.185Z,103352.21
2019-01-03T21:22:30.659Z,103354.41
2019-01-03T21:27:26.121Z,103365.34
2019-01-03T21:32:21.623Z,103362.70
2019-01-03T21:37:17.181Z,103362.70
2019-01-03T21:42:12.672Z,103373.62
2019-01-03T21:47:08.214Z,103369.20
2019-01-03T21:52:03.995Z,103365.64
2019-01-03T21:57:00.175Z,103362.12
2019-01-03T22:01:56.333Z,103374.83
2019-01-03T22:06:52.550Z,103383.16
2019-01-03T22:11:48.583Z,103377.47
2019-01-03T22:16:44.098Z,103374.39
2019-01-03T22:21:40.041Z,103385.30
2019-01-03T22:26:35.878Z,103382.67
2019-01-03T22:31:31.851Z,103378.73
2019-01-03T22:36:28.109Z,103373.91
2019-01-03T22:41:23.667Z,103382.22
2019-01-03T22:46:20.301Z,103378.28
2019-01-03T22:51:20.223Z,103377.44
2019-01-03T22:56:14.961Z,103377.39
2019-01-03T23:01:11.905Z,103383.41
2019-01-03T23:06:08.141Z,103383.80
2019-01-03T23:11:03.709Z,103379.86
2019-01-03T23:15:59.533Z,103381.17
2019-01-03T23:20:55.041Z,103387.34
2019-01-03T23:25:50.875Z,103390.45
2019-01-03T23:30:46.788Z,103393.52
2019-01-03T23:35:42.300Z,103379.53
2019-01-03T23:40:37.998Z,103374.75
2019-01-03T23:45:33.803Z,103370.41
2019-01-03T23:50:32.426Z,103369.55
2019-01-03T23:55:28.570Z,103373.93
